Time;durP1;ratioP1;P1;durP2;ratioP2;P2;SDS_P1;SDS_P2;PMS_P1;PMS_P2;Temp;Humidity;BMP_temperature;BMP_pressure;BME280_temperature;BME280_humidity;BME280_pressure;Samples;Min_cycle;Max_cycle;Signal;HPM_P1;HPM_P2
2022/11/19 04:58:34;;;;;;;21.10;10.75;;;;;;;-0.35;100.00;97886.56;2656765;27;20966;-87
2022/11/19 04:59:50;;;;;;;24.92;11.07;;;;;;;-0.19;100.00;97890.06;2651895;27;20129;-88
2022/11/19 05:01:06;;;;;;;23.33;9.80;;;;;;;-0.04;100.00;97883.28;2651762;27;20133;-88
2022/11/19 05:02:22;;;;;;;20.05;9.75;;;;;;;-0.06;100.00;97882.41;2650507;27;20597;-90
2022/11/19 05:03:37;;;;;;;19.58;9.52;;;;;;;-0.22;100.00;97879.75;2650466;27;20051;-88
2022/11/19 05:04:53;;;;;;;18.10;8.68;;;;;;;-0.09;100.00;97875.53;2653668;27;20125;-89
2022/11/19 05:06:09;;;;;;;51.28;23.63;;;;;;;-0.19;100.00;97884.91;2650403;27;20092;-89
2022/11/19 05:07:24;;;;;;;156.20;70.68;;;;;;;-0.03;100.00;97882.44;2649252;27;20051;-88
2022/11/19 05:08:40;;;;;;;124.65;56.78;;;;;;;-0.07;100.00;97888.41;2651788;27;20047;-89
2022/11/19 05:09:56;;;;;;;79.22;36.45;;;;;;;-0.12;100.00;97880.66;2650856;27;20055;-89
2022/11/19 05:11:11;;;;;;;104.47;48.75;;;;;;;-0.18;100.00;97893.50;2650037;27;20050;-88
2022/11/19 05:12:26;;;;;;;204.35;81.43;;;;;;;-0.30;100.00;97897.72;2650990;27;20047;-89
2022/11/19 05:13:42;;;;;;;68.03;33.42;;;;;;;-0.01;100.00;97898.75;2651359;27;20097;-90
2022/11/19 05:14:58;;;;;;;27.42;12.80;;;;;;;-0.03;100.00;97895.28;2651398;27;20507;-89
2022/11/19 05:16:13;;;;;;;20.63;9.73;;;;;;;-0.41;100.00;97895.94;2653281;27;20540;-88
2022/11/19 05:17:29;;;;;;;21.98;9.32;;;;;;;-0.25;100.00;97897.75;2652975;27;20050;-89
2022/11/19 05:18:44;;;;;;;21.23;9.65;;;;;;;-0.42;100.00;97895.06;2652689;27;20322;-88
2022/11/19 05:20:01;;;;;;;22.60;9.90;;;;;;;-0.19;100.00;97897.78;2651366;27;20049;-88
2022/11/19 05:21:16;;;;;;;21.42;9.63;;;;;;;-0.41;100.00;97901.94;2649873;27;20044;-88
2022/11/19 05:22:31;;;;;;;22.92;8.80;;;;;;;-0.32;100.00;97895.97;2652651;27;20062;-90
2022/11/19 05:23:47;;;;;;;22.13;8.30;;;;;;;-0.38;100.00;97901.09;2650182;27;20039;-89
2022/11/19 05:25:03;;;;;;;22.40;8.98;;;;;;;-0.68;100.00;97895.72;2650368;27;20126;-88
2022/11/19 05:26:19;;;;;;;20.38;9.10;;;;;;;-0.34;100.00;97901.13;2651423;27;20047;-89
2022/11/19 05:27:34;;;;;;;16.83;8.38;;;;;;;-0.47;100.00;97895.03;2650107;27;20043;-88
2022/11/19 05:28:50;;;;;;;21.17;9.15;;;;;;;-0.27;100.00;97903.72;2650294;27;20047;-88
2022/11/19 05:30:06;;;;;;;19.15;8.98;;;;;;;-0.20;100.00;97911.50;2650283;27;20050;-89
2022/11/19 05:31:22;;;;;;;22.70;8.88;;;;;;;-0.20;100.00;97919.22;2650771;27;20039;-89
2022/11/19 05:32:37;;;;;;;20.70;8.98;;;;;;;-0.36;100.00;97915.66;2651008;27;20595;-88
2022/11/19 05:33:53;;;;;;;21.67;9.25;;;;;;;-0.26;100.00;97911.47;2650088;27;20051;-88
2022/11/19 05:35:09;;;;;;;20.38;8.88;;;;;;;-0.35;100.00;97926.84;2652000;27;20050;-92
2022/11/19 05:36:24;;;;;;;23.98;11.20;;;;;;;-0.15;100.00;97916.69;2650758;27;20059;-90
2022/11/19 05:37:40;;;;;;;22.02;9.05;;;;;;;-0.21;100.00;97924.34;2650631;27;20489;-88
2022/11/19 05:38:55;;;;;;;19.55;8.82;;;;;;;-0.20;100.00;97926.94;2649685;27;20047;-89
2022/11/19 05:40:12;;;;;;;19.67;8.45;;;;;;;-0.38;100.00;97919.09;2649481;27;20572;-89
2022/11/19 05:41:27;;;;;;;19.92;8.25;;;;;;;-0.24;100.00;97925.19;2649847;27;20050;-89
2022/11/19 05:42:43;;;;;;;20.95;9.25;;;;;;;-0.12;100.00;97918.41;2650606;27;20051;-88
2022/11/19 05:43:58;;;;;;;21.17;9.38;;;;;;;0.12;100.00;97917.69;2650675;27;20047;-88
2022/11/19 05:45:15;;;;;;;20.55;8.48;;;;;;;-0.01;100.00;97920.19;2650303;27;20075;-88
2022/11/19 05:46:30;;;;;;;19.58;7.90;;;;;;;-0.21;100.00;97920.06;2649295;27;20086;-89
2022/11/19 05:47:45;;;;;;;22.50;8.88;;;;;;;-0.36;100.00;97922.53;2649695;27;20058;-88
2022/11/19 05:49:01;;;;;;;19.92;9.57;;;;;;;-0.41;100.00;97927.66;2649337;27;20047;-89
2022/11/19 05:50:17;;;;;;;23.23;9.13;;;;;;;-0.53;100.00;97923.28;2645480;27;20055;-88
2022/11/19 05:51:32;;;;;;;24.50;10.10;;;;;;;-0.91;100.00;97927.25;2645686;28;20074;-88
2022/11/19 05:52:48;;;;;;;23.88;9.02;;;;;;;-0.71;100.00;97919.69;2645756;28;20140;-88
2022/11/19 05:54:04;;;;;;;19.42;8.90;;;;;;;-1.00;100.00;97925.41;2645814;27;20054;-89
2022/11/19 05:55:20;;;;;;;25.02;8.82;;;;;;;-0.90;100.00;97918.69;2645665;28;20047;-89
2022/11/19 05:56:35;;;;;;;21.80;8.65;;;;;;;-1.04;100.00;97921.09;2645781;28;20079;-89
2022/11/19 05:57:50;;;;;;;21.38;9.25;;;;;;;-1.08;100.00;97927.06;2645593;27;20055;-88
2022/11/19 05:59:06;;;;;;;24.23;10.35;;;;;;;-1.01;100.00;97928.00;2640902;27;20044;-88
2022/11/19 06:00:22;;;;;;;20.25;9.02;;;;;;;-0.87;100.00;97930.69;2638807;28;20442;-88
2022/11/19 06:01:37;;;;;;;19.30;8.77;;;;;;;-1.22;100.00;97928.63;2638716;28;20409;-89
2022/11/19 06:02:53;;;;;;;18.50;8.27;;;;;;;-1.23;100.00;97939.75;2637765;28;20091;-89
2022/11/19 06:04:09;;;;;;;23.15;9.82;;;;;;;-1.39;100.00;97944.72;2638027;28;20552;-87
2022/11/19 06:05:25;;;;;;;21.33;8.10;;;;;;;-1.35;100.00;97941.31;2638418;28;20079;-87
2022/11/19 06:06:41;;;;;;;22.38;9.68;;;;;;;-1.19;100.00;97950.06;2638622;28;20048;-88
2022/11/19 06:07:56;;;;;;;23.25;9.43;;;;;;;-1.35;100.00;97949.03;2638527;28;20054;-89
2022/11/19 06:09:12;;;;;;;22.05;9.27;;;;;;;-1.32;100.00;97956.75;2638340;28;20138;-88
2022/11/19 06:10:27;;;;;;;20.10;9.38;;;;;;;-1.46;100.00;97956.63;2638077;28;20074;-89
2022/11/19 06:11:49;;;;;;;20.05;9.05;;;;;;;-1.42;100.00;97958.38;2638439;28;20093;-89
2022/11/19 06:13:05;;;;;;;22.58;9.95;;;;;;;-1.43;100.00;97958.34;2638234;28;20044;-90
2022/11/19 06:14:25;;;;;;;22.00;9.77;;;;;;;-1.53;100.00;97962.50;2638365;28;20051;-89
2022/11/19 06:15:41;;;;;;;22.42;8.52;;;;;;;-1.46;100.00;97954.03;2637635;28;20048;-90
2022/11/19 06:16:58;;;;;;;21.90;8.73;;;;;;;-1.46;100.00;97956.63;2638706;28;20079;-89
2022/11/19 06:18:13;;;;;;;24.65;9.98;;;;;;;-1.22;100.00;97960.28;2638893;28;20047;-90
2022/11/19 06:19:29;;;;;;;23.50;9.98;;;;;;;-0.92;100.00;97966.59;2637478;28;20078;-90
2022/11/19 06:20:45;;;;;;;23.35;9.30;;;;;;;-1.22;100.00;97972.28;2638455;28;20056;-89
2022/11/19 06:22:00;;;;;;;23.27;9.75;;;;;;;-1.38;100.00;97969.53;2638246;28;20063;-89
2022/11/19 06:23:16;;;;;;;13.23;5.68;;;;;;;-1.64;100.00;97972.63;2638486;28;20048;-88
2022/11/19 06:24:31;;;;;;;22.83;9.93;;;;;;;-1.53;100.00;97972.78;2638500;28;20074;-90
2022/11/19 06:25:48;;;;;;;24.83;10.27;;;;;;;-1.35;100.00;97977.28;2638544;28;20516;-90
2022/11/19 06:27:03;;;;;;;23.05;9.35;;;;;;;-1.49;100.00;97976.25;2638493;28;20044;-90
2022/11/19 06:28:19;;;;;;;22.20;9.40;;;;;;;-1.37;100.00;97978.97;2637475;28;20047;-89
2022/11/19 06:29:34;;;;;;;26.77;11.50;;;;;;;-1.42;100.00;97981.47;2637770;28;20056;-89
2022/11/19 06:30:50;;;;;;;31.17;11.25;;;;;;;-1.44;100.00;97979.72;2638194;27;20055;-90
2022/11/19 06:32:06;;;;;;;20.33;9.02;;;;;;;-1.71;100.00;97981.09;2637871;28;20101;-88
2022/11/19 06:33:21;;;;;;;24.55;9.77;;;;;;;-1.63;100.00;97982.06;2638287;28;20077;-90
2022/11/19 06:34:37;;;;;;;25.63;10.68;;;;;;;-1.61;100.00;97989.75;2638187;28;20047;-90
2022/11/19 06:35:53;;;;;;;22.83;9.80;;;;;;;-1.51;100.00;97986.47;2638205;28;20130;-90
2022/11/19 06:37:08;;;;;;;25.25;10.02;;;;;;;-1.56;100.00;97994.13;2637045;28;20524;-89
2022/11/19 06:38:24;;;;;;;23.55;9.50;;;;;;;-1.52;100.00;97989.06;2637904;28;20590;-90
2022/11/19 06:39:40;;;;;;;26.60;10.70;;;;;;;-1.47;100.00;97990.81;2637684;28;20050;-90
2022/11/19 06:40:56;;;;;;;25.40;10.02;;;;;;;-1.26;100.00;97985.91;2638077;28;20052;-88
2022/11/19 06:43:45;;;;;;;22.52;9.43;;;;;;;-1.17;100.00;97989.47;2638179;28;20473;-88
2022/11/19 06:45:05;;;;;;;23.95;9.95;;;;;;;-1.08;100.00;97991.28;2637421;28;20044;-90
2022/11/19 06:46:21;;;;;;;24.55;9.38;;;;;;;-1.31;100.00;97986.75;2637912;28;20047;-91
2022/11/19 06:47:38;;;;;;;26.13;9.88;;;;;;;-1.18;100.00;97989.47;2638163;28;20079;-89
2022/11/19 06:48:54;;;;;;;21.25;8.77;;;;;;;-1.37;100.00;97993.50;2637805;28;20052;-90
2022/11/19 06:50:10;;;;;;;23.58;9.77;;;;;;;-1.53;100.00;97992.47;2636708;28;20067;-90
2022/11/19 06:51:29;;;;;;;25.80;9.45;;;;;;;-1.33;100.00;97992.69;2638086;28;20082;-89
2022/11/19 06:52:51;;;;;;;24.67;9.88;;;;;;;-1.33;100.00;97990.13;2637950;28;20080;-87
2022/11/19 06:54:07;;;;;;;27.20;9.80;;;;;;;-1.44;100.00;97987.44;2637860;28;20055;-88
2022/11/19 06:55:22;;;;;;;20.92;9.15;;;;;;;-1.83;100.00;97989.50;2638201;28;20067;-88
2022/11/19 06:56:41;;;;;;;23.50;10.35;;;;;;;-1.81;100.00;97989.53;2638265;28;20051;-90
2022/11/19 06:58:04;;;;;;;26.20;10.27;;;;;;;-1.90;100.00;97985.97;2637762;28;20489;-88
2022/11/19 06:59:20;;;;;;;30.33;11.27;;;;;;;-1.89;100.00;97979.13;2637672;28;20086;-90
2022/11/19 07:00:35;;;;;;;29.23;11.60;;;;;;;-1.79;100.00;97991.25;2638139;28;20413;-88
2022/11/19 07:01:51;;;;;;;26.05;11.07;;;;;;;-2.01;100.00;97984.94;2638061;28;20676;-90
2022/11/19 07:03:07;;;;;;;26.15;10.60;;;;;;;-1.66;100.00;97979.47;2638072;28;20086;-94
2022/11/19 07:04:23;;;;;;;23.63;9.70;;;;;;;-1.72;100.00;97987.06;2638018;28;20044;-89
2022/11/19 07:05:38;;;;;;;22.98;9.85;;;;;;;-1.67;100.00;97985.44;2636896;28;20504;-90
2022/11/19 07:06:54;;;;;;;22.95;9.75;;;;;;;-1.58;100.00;97985.53;2637424;28;20047;-89
2022/11/19 07:08:10;;;;;;;25.02;10.13;;;;;;;-1.36;100.00;97990.97;2637957;28;20062;-90
2022/11/19 07:09:25;;;;;;;23.23;10.15;;;;;;;-1.29;100.00;97987.63;2637896;28;20587;-89
2022/11/19 07:10:41;;;;;;;27.75;11.45;;;;;;;-1.32;100.00;97987.59;2636228;28;20109;-90
2022/11/19 07:11:57;;;;;;;30.02;11.23;;;;;;;-1.18;100.00;97989.47;2637469;28;20048;-89
2022/11/19 07:13:13;;;;;;;27.63;11.48;;;;;;;-1.16;100.00;97993.78;2637786;28;20086;-90
2022/11/19 07:14:28;;;;;;;24.98;10.07;;;;;;;-1.10;100.00;97994.69;2637575;28;20052;-89
2022/11/19 07:15:44;;;;;;;28.83;11.93;;;;;;;-1.11;100.00;97995.53;2637781;28;20056;-90
2022/11/19 07:17:00;;;;;;;26.15;10.63;;;;;;;-0.96;100.00;97997.41;2637646;28;20126;-89
2022/11/19 07:18:15;;;;;;;26.38;11.45;;;;;;;-1.06;100.00;97994.75;2637572;27;20135;-90
2022/11/19 07:19:31;;;;;;;25.48;11.65;;;;;;;-1.19;100.00;97991.19;2637845;28;20108;-89
2022/11/19 07:20:46;;;;;;;27.73;10.70;;;;;;;-1.11;100.00;97998.09;2637498;28;20071;-88
2022/11/19 07:22:02;;;;;;;27.15;11.38;;;;;;;-1.41;100.00;98000.28;2637932;28;20058;-90
2022/11/19 07:23:19;;;;;;;31.27;11.85;;;;;;;-1.49;100.00;98005.34;2637856;28;20186;-89
2022/11/19 07:24:34;;;;;;;29.08;11.45;;;;;;;-1.30;100.00;98003.03;2637349;28;20083;-90
2022/11/19 07:25:50;;;;;;;27.02;10.80;;;;;;;-1.52;100.00;98001.88;2637248;28;20043;-91
2022/11/19 07:27:06;;;;;;;28.23;12.18;;;;;;;-1.45;100.00;97998.53;2637640;28;20043;-89
2022/11/19 07:28:21;;;;;;;25.73;11.80;;;;;;;-1.22;100.00;98003.13;2637220;28;20418;-90
2022/11/19 07:29:37;;;;;;;28.42;11.27;;;;;;;-1.15;100.00;98003.19;2637471;28;20516;-89
2022/11/19 07:30:53;;;;;;;32.88;12.95;;;;;;;-1.11;100.00;98001.53;2637608;28;20048;-88
2022/11/19 07:32:09;;;;;;;31.88;12.55;;;;;;;-1.21;100.00;97997.13;2625905;28;20449;-90
2022/11/19 07:33:24;;;;;;;29.58;11.05;;;;;;;-1.36;100.00;98005.50;2630947;28;20047;-89
2022/11/19 07:34:40;;;;;;;31.52;12.63;;;;;;;-1.29;100.00;98007.31;2637213;28;20063;-87
2022/11/19 07:35:55;;;;;;;29.92;11.13;;;;;;;-1.42;100.00;98003.72;2637543;28;20154;-87
2022/11/19 07:37:11;;;;;;;31.45;11.70;;;;;;;-1.22;100.00;98010.81;2637766;28;20059;-86
2022/11/19 07:38:27;;;;;;;27.20;12.15;;;;;;;-1.09;100.00;98002.41;2637694;27;20057;-88
2022/11/19 07:39:45;;;;;;;30.63;11.68;;;;;;;-1.10;100.00;97998.13;2637647;28;20044;-89
2022/11/19 07:42:47;;;;;;;27.95;10.90;;;;;;;-1.06;100.00;97999.00;2638026;28;20136;-90
2022/11/19 07:42:50;;;;;;;30.65;11.10;;;;;;;-1.04;100.00;98003.31;2637316;28;20077;-87
2022/11/19 07:44:06;;;;;;;24.45;10.50;;;;;;;-0.76;100.00;98002.78;2637466;28;20940;-89
2022/11/19 07:45:21;;;;;;;26.50;11.27;;;;;;;-0.76;100.00;97993.34;2637442;27;20098;-90
2022/11/19 07:46:37;;;;;;;26.90;11.18;;;;;;;-0.68;100.00;97990.84;2637226;28;20051;-87
2022/11/19 07:47:53;;;;;;;26.58;10.55;;;;;;;-0.63;100.00;97993.47;2637397;28;20086;-87
2022/11/19 07:49:08;;;;;;;24.52;11.05;;;;;;;-0.55;100.00;97994.41;2637360;28;20058;-87
2022/11/19 07:50:23;;;;;;;25.98;10.73;;;;;;;-0.55;100.00;98001.25;2625603;28;20064;-87
2022/11/19 07:51:39;;;;;;;26.23;10.73;;;;;;;-0.89;100.00;98010.34;2630511;28;20583;-87
2022/11/19 07:52:58;;;;;;;28.13;11.27;;;;;;;-0.75;100.00;98001.94;2637652;28;20058;-90
2022/11/19 07:54:13;;;;;;;26.95;10.85;;;;;;;-0.76;100.00;97997.63;2635421;28;20092;-87
2022/11/19 07:55:29;;;;;;;28.83;11.27;;;;;;;-0.98;100.00;98001.66;2637347;28;20545;-89
2022/11/19 07:56:44;;;;;;;32.20;11.90;;;;;;;-0.58;100.00;97994.34;2637453;28;20633;-89
2022/11/19 07:58:00;;;;;;;27.40;10.15;;;;;;;-0.99;100.00;97995.66;2636970;28;20060;-88
2022/11/19 07:59:16;;;;;;;27.52;11.98;;;;;;;-0.69;100.00;97988.28;2637573;28;20477;-90
2022/11/19 08:00:32;;;;;;;24.33;11.23;;;;;;;-0.61;100.00;97996.91;2637262;28;20074;-89
2022/11/19 08:01:48;;;;;;;30.23;12.00;;;;;;;-0.44;100.00;97992.78;2637471;27;20047;-88
2022/11/19 08:03:04;;;;;;;28.98;12.05;;;;;;;-0.41;100.00;97984.22;2637424;28;20047;-89
2022/11/19 08:04:20;;;;;;;28.60;11.63;;;;;;;-0.36;100.00;97990.25;2637087;28;20510;-87
2022/11/19 08:05:38;;;;;;;28.13;11.85;;;;;;;-0.27;100.00;97992.06;2637370;28;20047;-87
2022/11/19 08:06:53;;;;;;;28.30;12.10;;;;;;;-0.27;100.00;97991.19;2637072;28;20175;-88
2022/11/19 08:08:09;;;;;;;37.00;12.32;;;;;;;-0.14;100.00;97987.88;2637533;28;20060;-88
2022/11/19 08:09:25;;;;;;;29.80;12.18;;;;;;;-0.08;100.00;97998.19;2637130;28;20413;-89
2022/11/19 08:10:40;;;;;;;25.30;11.52;;;;;;;-0.09;100.00;97995.63;2637643;28;20047;-88
2022/11/19 08:11:56;;;;;;;30.85;11.98;;;;;;;-0.06;100.00;97998.22;2637497;28;20051;-88
2022/11/19 08:13:12;;;;;;;28.63;12.38;;;;;;;0.09;100.00;98003.47;2637410;27;20109;-86
2022/11/19 08:14:27;;;;;;;27.80;11.35;;;;;;;0.02;100.00;98001.72;2637203;28;20063;-88
2022/11/19 08:15:43;;;;;;;26.65;11.23;;;;;;;0.05;100.00;98006.00;2637167;28;20104;-87
2022/11/19 08:18:33;;;;;;;26.48;11.50;;;;;;;0.26;100.00;97998.44;2637411;28;20482;-88
2022/11/19 08:19:48;;;;;;;30.90;13.38;;;;;;;0.26;100.00;98001.03;2636853;28;20047;-89
2022/11/19 08:21:06;;;;;;;28.08;12.38;;;;;;;0.28;100.00;98006.19;2637133;28;20043;-88
2022/11/19 08:22:22;;;;;;;26.67;11.35;;;;;;;0.33;100.00;98004.50;2636220;28;20043;-87
2022/11/19 08:23:38;;;;;;;32.97;13.00;;;;;;;0.33;100.00;98004.50;2636344;28;20075;-87
2022/11/19 08:24:53;;;;;;;28.60;12.15;;;;;;;0.52;100.00;98005.47;2636306;28;20421;-88
2022/11/19 08:26:09;;;;;;;25.80;11.90;;;;;;;0.46;100.00;98002.84;2636724;28;20051;-88
2022/11/19 08:27:24;;;;;;;27.02;11.60;;;;;;;0.46;100.00;98009.72;2637166;28;20149;-89
2022/11/19 08:28:40;;;;;;;27.83;10.82;;;;;;;0.48;100.00;98008.00;2637402;28;20137;-88
2022/11/19 08:29:56;;;;;;;26.25;11.85;;;;;;;0.49;100.00;98010.59;2636988;28;20074;-87
2022/11/19 08:31:11;;;;;;;27.60;11.23;;;;;;;0.49;100.00;98009.72;2636712;28;20101;-88
2022/11/19 08:32:27;;;;;;;24.10;10.77;;;;;;;0.34;100.00;98011.38;2633907;28;20043;-88
2022/11/19 08:33:43;;;;;;;28.08;11.40;;;;;;;0.28;100.00;98009.63;2633962;28;20044;-87
2022/11/19 08:34:58;;;;;;;29.17;13.40;;;;;;;0.44;100.00;98009.69;2634372;28;20044;-88
2022/11/19 08:36:14;;;;;;;28.40;12.48;;;;;;;0.50;100.00;98007.19;2634369;28;20838;-88
2022/11/19 08:37:29;;;;;;;29.02;13.57;;;;;;;0.40;100.00;98005.41;2634468;28;20051;-87
2022/11/19 08:38:45;;;;;;;32.47;13.60;;;;;;;0.39;100.00;98001.09;2634839;28;20052;-88
2022/11/19 08:40:01;;;;;;;38.30;17.02;;;;;;;0.35;100.00;97996.75;2634231;28;20470;-88
2022/11/19 08:43:00;;;;;;;38.42;15.43;;;;;;;0.72;100.00;97996.13;2634334;28;20062;-88
2022/11/19 08:44:16;;;;;;;38.17;14.48;;;;;;;0.27;100.00;97999.28;2634573;28;20047;-88
2022/11/19 08:45:33;;;;;;;39.60;15.68;;;;;;;0.37;100.00;98000.22;2634268;28;20156;-87
2022/11/19 08:46:49;;;;;;;28.10;12.77;;;;;;;0.31;100.00;98010.47;2634769;28;20048;-88
2022/11/19 08:48:09;;;;;;;25.83;10.85;;;;;;;0.27;100.00;98014.75;2634468;28;21160;-88
2022/11/19 08:49:25;;;;;;;26.30;11.60;;;;;;;0.01;100.00;98017.16;2634013;28;20134;-88
2022/11/19 08:50:41;;;;;;;25.48;10.48;;;;;;;-0.01;100.00;98019.69;2634241;28;20527;-88
2022/11/19 08:51:56;;;;;;;26.42;11.20;;;;;;;0.06;100.00;98013.75;2634783;28;20048;-88
2022/11/19 08:53:12;;;;;;;24.60;9.73;;;;;;;0.04;100.00;98024.88;2634382;28;20047;-88
2022/11/19 08:54:28;;;;;;;23.58;10.32;;;;;;;-0.17;100.00;98027.28;2634162;28;20567;-87
2022/11/19 08:55:49;;;;;;;26.63;11.80;;;;;;;-0.03;100.00;98034.25;2633964;28;20497;-87
2022/11/19 08:57:05;;;;;;;26.75;11.60;;;;;;;0.25;100.00;98025.03;2634154;28;20051;-87
2022/11/19 08:58:21;;;;;;;24.92;11.35;;;;;;;0.36;100.00;98019.97;2634489;28;20056;-88
2022/11/19 08:59:37;;;;;;;24.92;11.07;;;;;;;0.37;100.00;98021.69;2633858;28;20530;-87
2022/11/19 09:00:53;;;;;;;25.50;11.38;;;;;;;0.38;100.00;98027.69;2634377;28;20043;-88
2022/11/19 09:02:10;;;;;;;28.58;11.85;;;;;;;0.36;100.00;98032.00;2634300;28;20089;-87
2022/11/19 09:03:25;;;;;;;25.52;10.75;;;;;;;0.24;100.00;98041.34;2634383;28;20074;-87
2022/11/19 09:04:41;;;;;;;25.42;10.63;;;;;;;0.32;100.00;98049.13;2634238;28;20139;-87
2022/11/19 09:05:58;;;;;;;21.35;10.02;;;;;;;0.35;100.00;98043.13;2634299;28;20526;-87
2022/11/19 09:07:14;;;;;;;24.08;11.50;;;;;;;0.45;100.00;98044.06;2634076;28;20447;-88
2022/11/19 09:08:29;;;;;;;26.20;10.88;;;;;;;0.51;100.00;98044.97;2634252;28;20051;-88
2022/11/19 09:09:46;;;;;;;26.65;11.02;;;;;;;0.49;100.00;98051.81;2633781;28;20163;-87
2022/11/19 09:11:13;;;;;;;29.67;12.55;;;;;;;0.39;100.00;98047.44;2633995;28;20505;-87
2022/11/19 09:12:29;;;;;;;25.60;10.32;;;;;;;0.50;100.00;98043.25;2634556;28;20496;-87
2022/11/19 09:13:45;;;;;;;26.50;12.07;;;;;;;0.64;100.00;98043.28;2634758;28;20043;-87
2022/11/19 09:15:01;;;;;;;24.15;10.70;;;;;;;0.63;100.00;98036.44;2634558;28;20489;-87
2022/11/19 09:16:16;;;;;;;27.85;11.77;;;;;;;0.54;100.00;98029.50;2634058;28;20056;-87
2022/11/19 09:17:32;;;;;;;25.60;10.95;;;;;;;0.55;100.00;98027.78;2634427;28;20043;-87
2022/11/19 09:18:47;;;;;;;25.48;10.80;;;;;;;0.23;100.00;98034.47;2634469;28;20058;-87
2022/11/19 09:20:04;;;;;;;25.15;10.82;;;;;;;0.32;100.00;98035.38;2634508;28;20313;-87
2022/11/19 09:21:19;;;;;;;27.50;11.65;;;;;;;0.17;100.00;98033.56;2634810;28;20231;-87
2022/11/19 09:22:35;;;;;;;22.92;10.23;;;;;;;0.23;100.00;98038.75;2634171;28;20047;-87
2022/11/19 09:23:50;;;;;;;25.55;11.38;;;;;;;0.31;100.00;98037.09;2634657;28;20125;-87
2022/11/19 09:25:07;;;;;;;22.70;10.27;;;;;;;0.45;100.00;98029.44;2634302;28;20044;-87
2022/11/19 09:26:23;;;;;;;24.15;10.85;;;;;;;0.26;100.00;98042.22;2633855;28;20561;-87
2022/11/19 09:27:38;;;;;;;27.00;11.98;;;;;;;0.21;100.00;98032.72;2634198;28;20044;-87
2022/11/19 09:28:54;;;;;;;30.60;12.07;;;;;;;0.26;100.00;98033.63;2633897;28;20476;-87
2022/11/19 09:30:10;;;;;;;29.52;11.57;;;;;;;0.27;100.00;98037.91;2633864;28;20047;-87
2022/11/19 09:31:26;;;;;;;24.75;10.50;;;;;;;0.25;100.00;98044.78;2634112;28;20058;-87
2022/11/19 09:32:41;;;;;;;25.33;10.65;;;;;;;0.25;100.00;98045.66;2633050;28;20046;-87
2022/11/19 09:33:57;;;;;;;24.65;10.73;;;;;;;0.33;100.00;98045.69;2633636;28;20047;-87
2022/11/19 09:35:13;;;;;;;26.92;11.48;;;;;;;0.05;100.00;98039.47;2636502;28;20097;-87
2022/11/19 09:36:28;;;;;;;25.63;11.45;;;;;;;0.25;100.00;98043.06;2636445;28;20047;-87
2022/11/19 09:37:44;;;;;;;28.17;11.20;;;;;;;0.36;100.00;98050.00;2636511;28;20069;-88
2022/11/19 09:39:01;;;;;;;27.90;11.50;;;;;;;0.43;100.00;98038.03;2635959;28;20300;-90
2022/11/19 09:40:20;;;;;;;25.73;10.52;;;;;;;0.46;100.00;98038.06;2636466;28;20147;-87
2022/11/19 09:41:57;;;;;;;23.17;10.13;;;;;;;0.25;100.00;98042.19;2635351;28;20043;-87
2022/11/19 09:43:40;;;;;;;28.45;10.85;;;;;;;0.50;100.00;98035.50;2635857;28;20047;-88
2022/11/19 09:45:13;;;;;;;27.58;9.90;;;;;;;0.32;100.00;98041.41;2607229;28;20826;-87
2022/11/19 09:46:41;;;;;;;22.27;10.10;;;;;;;-0.01;100.00;98042.84;2636230;28;20132;-87
2022/11/19 09:48:06;;;;;;;24.45;10.32;;;;;;;0.04;100.00;98040.31;2635718;28;20047;-90
2022/11/19 09:49:31;;;;;;;28.20;11.20;;;;;;;-0.22;100.00;98041.84;2634817;28;20158;-89
2022/11/19 09:51:20;;;;;;;24.55;10.57;;;;;;;-0.26;100.00;98050.41;2635945;28;20051;-89
2022/11/19 09:52:53;;;;;;;24.90;10.60;;;;;;;-0.20;100.00;98055.59;2624446;28;20051;-87
2022/11/19 09:54:15;;;;;;;;;;;;;;;-0.32;100.00;98048.63;2636683;28;20638;-87
2022/11/19 09:55:30;;;;;;;24.02;10.73;;;;;;;-0.35;100.00;98055.44;2636352;28;19990;-87
2022/11/19 09:56:48;;;;;;;23.63;9.75;;;;;;;-0.48;100.00;98059.63;2636026;28;20048;-90
2022/11/19 09:58:11;;;;;;;28.10;10.75;;;;;;;-0.27;100.00;98060.66;2635763;28;20746;-89
2022/11/19 09:59:38;;;;;;;26.65;10.18;;;;;;;-0.25;100.00;98057.25;2635376;28;20052;-89
2022/11/19 10:00:53;;;;;;;29.83;11.77;;;;;;;-0.11;100.00;98061.66;2635997;28;20048;-89
2022/11/19 10:02:16;;;;;;;29.20;10.73;;;;;;;-0.45;100.00;98060.50;2636104;28;20238;-89
2022/11/19 10:03:32;;;;;;;31.98;12.95;;;;;;;-0.23;100.00;98059.81;2635246;28;20048;-89
2022/11/19 10:04:50;;;;;;;32.25;12.98;;;;;;;-0.04;100.00;98054.00;2636139;28;20066;-88
2022/11/19 10:06:08;;;;;;;23.70;10.55;;;;;;;-0.30;100.00;98059.78;2635765;28;20611;-88
2022/11/19 10:07:47;;;;;;;30.90;12.32;;;;;;;-0.22;100.00;98052.13;2636185;28;20406;-89
2022/11/19 10:09:23;;;;;;;26.92;12.13;;;;;;;-0.31;100.00;98054.63;2635270;28;20093;-89
2022/11/19 10:10:59;;;;;;;25.25;10.48;;;;;;;-0.29;100.00;98040.94;2635903;28;20051;-89
2022/11/19 10:12:47;;;;;;;25.55;10.10;;;;;;;-0.31;100.00;98036.59;2636146;28;20509;-88
2022/11/19 10:14:12;;;;;;;28.13;11.30;;;;;;;-0.11;100.00;98028.22;2635896;28;20119;-89
2022/11/19 10:15:38;;;;;;;28.48;11.57;;;;;;;-0.05;100.00;98028.25;2635834;28;20047;-88
2022/11/19 10:17:06;;;;;;;27.13;10.82;;;;;;;-0.09;100.00;98031.66;2635636;28;20047;-89
2022/11/19 10:18:54;;;;;;;31.55;12.25;;;;;;;0.07;100.00;98027.47;2635968;28;20096;-90
2022/11/19 10:20:29;;;;;;;23.95;9.98;;;;;;;0.22;100.00;98031.88;2613043;28;20081;-89
2022/11/19 10:22:13;;;;;;;24.13;10.82;;;;;;;0.34;100.00;98025.94;2621603;28;20060;-89
2022/11/19 10:23:43;;;;;;;25.90;10.52;;;;;;;0.47;100.00;98026.91;2627287;28;20075;-89
2022/11/19 10:25:15;;;;;;;23.27;10.52;;;;;;;0.65;100.00;98024.41;2635870;28;20074;-89
2022/11/19 10:26:34;;;;;;;25.98;10.73;;;;;;;0.73;100.00;98024.44;2635639;28;20055;-88
2022/11/19 10:27:54;;;;;;;28.13;10.77;;;;;;;0.48;100.00;98023.47;2635360;28;20051;-89
2022/11/19 10:29:19;;;;;;;23.85;9.63;;;;;;;0.66;100.00;98022.72;2635318;27;20382;-89
2022/11/19 10:30:37;;;;;;;28.13;12.15;;;;;;;0.71;100.00;98031.31;2635600;28;20071;-89
2022/11/19 10:31:53;;;;;;;26.00;10.43;;;;;;;0.30;100.00;98021.63;2634093;28;20047;-89
2022/11/19 10:33:26;;;;;;;23.60;10.02;;;;;;;0.23;100.00;98033.59;2634967;28;20039;-90
2022/11/19 10:34:43;;;;;;;29.33;11.77;;;;;;;0.48;100.00;98023.47;2635748;28;20047;-90
2022/11/19 10:36:10;;;;;;;25.67;10.27;;;;;;;0.72;100.00;98016.72;2635364;28;20501;-89
2022/11/19 10:37:34;;;;;;;24.85;10.10;;;;;;;0.93;100.00;98016.78;2635257;28;20319;-89
2022/11/19 10:38:55;;;;;;;25.08;10.65;;;;;;;0.79;100.00;98015.88;2635134;28;20407;-89
2022/11/19 10:40:16;;;;;;;25.25;11.00;;;;;;;1.05;100.00;98018.59;2635738;28;20040;-89
2022/11/19 10:41:41;;;;;;;24.67;10.10;;;;;;;0.89;100.00;98020.22;2635724;28;20466;-89
2022/11/19 10:43:09;;;;;;;23.58;10.60;;;;;;;1.10;100.00;98016.00;2635218;28;20369;-88
2022/11/19 10:44:36;;;;;;;25.77;10.93;;;;;;;0.49;100.00;98020.91;2635375;28;20052;-89
2022/11/19 10:45:54;;;;;;;22.95;9.90;;;;;;;0.86;100.00;98020.22;2635369;28;20074;-87
2022/11/19 10:47:27;;;;;;;24.85;10.57;;;;;;;0.45;100.00;98026.03;2635444;28;20051;-87
2022/11/19 10:48:45;;;;;;;;;;;;;;;0.77;100.00;98017.59;2636083;28;20051;-87
2022/11/19 10:50:01;;;;;;;25.95;10.43;;;;;;;0.73;100.00;98008.13;2634350;28;19927;-87
2022/11/19 10:51:28;;;;;;;24.65;10.73;;;;;;;0.73;100.00;98008.13;2634679;28;20044;-88
2022/11/19 10:52:50;;;;;;;23.33;9.85;;;;;;;0.50;100.00;98008.88;2635174;28;20086;-87
2022/11/19 10:54:23;;;;;;;27.08;11.05;;;;;;;0.89;100.00;98015.06;2635423;28;20059;-88
2022/11/19 10:55:42;;;;;;;24.17;10.40;;;;;;;0.92;100.00;98015.06;2635278;28;20393;-88
2022/11/19 10:56:59;;;;;;;23.27;10.25;;;;;;;0.79;100.00;98008.16;2635278;28;20412;-87
2022/11/19 10:58:15;;;;;;;23.17;10.50;;;;;;;1.02;100.00;98008.22;2634824;28;20136;-88
2022/11/19 10:59:31;;;;;;;25.08;11.30;;;;;;;1.35;100.00;98010.91;2634858;28;20481;-87
2022/11/19 11:00:48;;;;;;;25.02;11.35;;;;;;;1.15;100.00;98004.00;2635179;28;20048;-88